Time;durP1;ratioP1;P1;durP2;ratioP2;P2;SDS_P1;SDS_P2;PMS_P1;PMS_P2;Temp;Humidity;BMP_temperature;BMP_pressure;BME280_temperature;BME280_humidity;BME280_pressure;Samples;Min_cycle;Max_cycle;Signal;HPM_P1;HPM_P2
2022/01/29 00:00:43;;;;;;;74.73;38.33;;;7.10;98.80;;;;;;5017120;28;20109;-77
2022/01/29 00:03:10;;;;;;;69.70;37.93;;;7.10;98.70;;;;;;5033328;28;20037;-77
2022/01/29 00:05:35;;;;;;;71.87;39.90;;;7.10;98.80;;;;;;5016959;28;20060;-77
2022/01/29 00:08:02;;;;;;;65.70;37.30;;;7.10;98.90;;;;;;5033183;28;20393;-77
2022/01/29 00:10:28;;;;;;;80.17;37.77;;;7.00;98.90;;;;;;5017289;28;20029;-77
2022/01/29 00:12:54;;;;;;;73.03;38.47;;;7.10;98.90;;;;;;5033387;28;20025;-76
2022/01/29 00:15:20;;;;;;;62.80;34.93;;;7.10;99.10;;;;;;5034329;28;20021;-76
2022/01/29 00:17:46;;;;;;;62.53;35.10;;;7.10;99.00;;;;;;5033011;28;20072;-77
2022/01/29 00:20:12;;;;;;;69.87;37.10;;;7.10;99.10;;;;;;5033517;28;20026;-77
2022/01/29 00:22:37;;;;;;;74.90;40.03;;;7.00;99.20;;;;;;5016478;28;20125;-77
2022/01/29 00:25:04;;;;;;;68.23;37.73;;;7.00;99.30;;;;;;5032678;28;20068;-77
2022/01/29 00:27:33;;;;;;;67.80;37.77;;;7.00;99.40;;;;;;5016423;28;20026;-77
2022/01/29 00:30:07;;;;;;;73.63;39.33;;;7.00;99.30;;;;;;5034111;28;20049;-77
2022/01/29 00:32:33;;;;;;;76.05;40.53;;;7.00;99.70;;;;;;5034148;28;20057;-77
2022/01/29 00:34:58;;;;;;;71.90;38.50;;;7.00;99.80;;;;;;5034004;28;20110;-77
2022/01/29 00:37:24;;;;;;;72.23;39.20;;;7.00;99.80;;;;;;5016107;28;20026;-77
2022/01/29 00:39:50;;;;;;;76.23;40.90;;;6.90;99.90;;;;;;5016324;28;20021;-77
2022/01/29 00:42:17;;;;;;;75.40;38.60;;;6.90;99.90;;;;;;5016361;28;20029;-77
2022/01/29 00:44:43;;;;;;;74.37;40.00;;;6.90;99.90;;;;;;5034207;28;20536;-78
2022/01/29 00:47:09;;;;;;;70.77;40.10;;;6.90;99.90;;;;;;5033697;28;20103;-77
2022/01/29 00:49:34;;;;;;;77.37;40.13;;;6.90;99.90;;;;;;5015907;28;20477;-78
2022/01/29 00:52:00;;;;;;;79.90;40.77;;;6.90;99.90;;;;;;5016366;28;20030;-78
2022/01/29 00:54:26;;;;;;;83.03;40.70;;;6.90;99.90;;;;;;5032564;28;20025;-78
2022/01/29 00:56:52;;;;;;;73.37;38.80;;;6.80;99.90;;;;;;5032348;28;20029;-77
2022/01/29 00:59:17;;;;;;;78.67;39.97;;;6.80;99.90;;;;;;5032439;28;20013;-78
2022/01/29 01:01:43;;;;;;;80.60;43.00;;;6.80;99.90;;;;;;5033438;28;20021;-78
2022/01/29 01:04:09;;;;;;;91.27;43.77;;;6.90;99.90;;;;;;5032752;28;20056;-77
2022/01/29 01:06:34;;;;;;;78.37;41.47;;;6.80;99.90;;;;;;5033317;28;20022;-77
2022/01/29 01:09:00;;;;;;;69.80;36.33;;;6.90;99.90;;;;;;5015672;28;20033;-77
2022/01/29 01:11:26;;;;;;;70.33;38.23;;;6.80;99.90;;;;;;5015696;28;20025;-77
2022/01/29 01:13:51;;;;;;;79.47;39.73;;;6.90;99.90;;;;;;5015612;28;20488;-78
2022/01/29 01:16:17;;;;;;;79.10;41.13;;;6.90;99.90;;;;;;5015617;28;20021;-77
2022/01/29 01:18:42;;;;;;;76.03;40.00;;;6.90;99.90;;;;;;5032044;28;20044;-77
2022/01/29 01:21:08;;;;;;;76.50;41.80;;;6.90;99.90;;;;;;5031974;28;20040;-77
2022/01/29 01:23:34;;;;;;;68.90;38.50;;;6.90;99.90;;;;;;5015740;28;20111;-78
2022/01/29 01:26:01;;;;;;;84.47;41.67;;;6.80;99.90;;;;;;5045184;28;20058;-77
2022/01/29 01:28:28;;;;;;;75.67;42.20;;;6.90;99.90;;;;;;5035489;28;20029;-78
2022/01/29 01:30:53;;;;;;;77.43;42.43;;;6.90;99.90;;;;;;5035605;28;20029;-78
2022/01/29 01:33:20;;;;;;;69.73;39.43;;;6.90;99.90;;;;;;5018873;28;20370;-78
2022/01/29 01:35:50;;;;;;;76.07;38.80;;;7.00;99.90;;;;;;5035115;28;20021;-78
2022/01/29 01:40:46;;;;;;;67.23;35.30;;;7.00;99.90;;;;;;5035416;28;20025;-79
2022/01/29 01:43:11;;;;;;;73.53;36.47;;;6.90;99.90;;;;;;5034997;28;20025;-75
2022/01/29 01:45:37;;;;;;;71.37;38.27;;;7.00;99.90;;;;;;5018738;28;20032;-76
2022/01/29 01:48:06;;;;;;;73.70;38.27;;;7.00;99.90;;;;;;5035525;28;20445;-76
2022/01/29 01:50:33;;;;;;;61.83;34.77;;;7.00;99.90;;;;;;5022445;28;20133;-76
2022/01/29 01:52:59;;;;;;;61.67;35.83;;;7.10;99.90;;;;;;5022836;28;20040;-76
2022/01/29 01:55:25;;;;;;;70.67;36.87;;;7.00;99.90;;;;;;5039332;28;20029;-76
2022/01/29 01:57:53;;;;;;;61.60;35.53;;;6.90;99.90;;;;;;5038640;28;20024;-77
2022/01/29 02:00:19;;;;;;;69.40;37.30;;;7.10;99.90;;;;;;5022694;28;20545;-76
2022/01/29 02:02:45;;;;;;;71.60;36.43;;;7.00;99.90;;;;;;5022184;28;20071;-76
2022/01/29 02:05:11;;;;;;;74.20;39.93;;;7.10;99.90;;;;;;5039028;28;20477;-76
2022/01/29 02:07:37;;;;;;;68.63;37.27;;;7.10;99.90;;;;;;5038627;28;20104;-77
2022/01/29 02:10:11;;;;;;;66.03;37.73;;;7.00;99.90;;;;;;5022047;28;20480;-78
2022/01/29 02:13:05;;;;;;;75.60;39.47;;;7.10;99.90;;;;;;5022831;28;20033;-79
2022/01/29 02:15:31;;;;;;;66.03;37.20;;;7.10;99.90;;;;;;5037887;28;20036;-77
2022/01/29 02:17:58;;;;;;;69.33;38.30;;;7.10;99.90;;;;;;5038406;28;20025;-78
2022/01/29 02:20:29;;;;;;;70.97;38.80;;;7.10;99.90;;;;;;5021868;28;20025;-78
2022/01/29 02:22:56;;;;;;;69.17;39.70;;;7.10;99.90;;;;;;5038312;28;20021;-79
2022/01/29 02:25:33;;;;;;;73.70;39.63;;;7.10;99.90;;;;;;5038074;28;20055;-78
2022/01/29 02:28:02;;;;;;;69.23;39.07;;;7.00;99.90;;;;;;5038759;28;20108;-81
2022/01/29 02:30:30;;;;;;;67.80;38.23;;;7.10;99.90;;;;;;5038159;28;20125;-79
2022/01/29 02:32:58;;;;;;;75.57;41.77;;;7.00;99.90;;;;;;5038648;28;20057;-79
2022/01/29 02:35:24;;;;;;;68.20;37.70;;;7.10;99.90;;;;;;5021864;28;20391;-79
2022/01/29 02:37:51;;;;;;;65.93;38.30;;;7.00;99.90;;;;;;5038419;28;20029;-80
2022/01/29 02:40:22;;;;;;;73.37;41.50;;;7.00;99.90;;;;;;5038796;28;20108;-76
2022/01/29 02:42:50;;;;;;;68.77;39.33;;;7.10;99.90;;;;;;5021690;28;20390;-77
2022/01/29 02:45:15;;;;;;;68.53;39.00;;;7.10;99.90;;;;;;5038339;28;20032;-78
2022/01/29 02:47:41;;;;;;;70.93;40.07;;;7.00;99.90;;;;;;5056173;28;20029;-78
2022/01/29 02:50:08;;;;;;;68.23;39.50;;;7.00;99.90;;;;;;5055721;28;20039;-78
2022/01/29 02:52:34;;;;;;;70.83;39.67;;;7.00;99.90;;;;;;5021502;28;20036;-78
2022/01/29 02:55:00;;;;;;;64.13;37.37;;;7.00;99.90;;;;;;5037673;28;20021;-78
2022/01/29 02:57:26;;;;;;;63.57;37.43;;;7.00;99.90;;;;;;5037753;28;20017;-77
2022/01/29 02:59:52;;;;;;;69.77;38.53;;;7.00;99.90;;;;;;5021309;28;20086;-78
2022/01/29 03:02:18;;;;;;;63.90;36.27;;;7.00;99.90;;;;;;5038028;28;20036;-78
2022/01/29 03:04:44;;;;;;;59.13;36.00;;;7.00;99.90;;;;;;5037671;28;20033;-78
2022/01/29 03:07:09;;;;;;;67.10;36.67;;;7.10;99.90;;;;;;5038052;28;20106;-79
2022/01/29 03:09:35;;;;;;;65.63;37.63;;;7.00;99.90;;;;;;5021194;28;20363;-78
2022/01/29 03:12:02;;;;;;;66.00;37.27;;;7.00;99.90;;;;;;5020960;28;20076;-77
2022/01/29 03:14:27;;;;;;;70.43;36.77;;;7.10;99.90;;;;;;5021321;28;20033;-77
2022/01/29 03:16:53;;;;;;;60.00;36.50;;;7.00;99.90;;;;;;5055283;28;20032;-77
2022/01/29 03:19:19;;;;;;;61.20;35.40;;;6.90;99.90;;;;;;5037823;28;20021;-77
2022/01/29 03:21:44;;;;;;;65.87;36.83;;;7.00;99.90;;;;;;5020882;28;20120;-78
2022/01/29 03:24:10;;;;;;;58.63;36.90;;;7.10;99.90;;;;;;5037462;28;20025;-78
2022/01/29 03:26:36;;;;;;;60.30;34.03;;;7.00;99.90;;;;;;5037258;28;20053;-78
2022/01/29 03:29:01;;;;;;;56.10;33.90;;;7.10;99.90;;;;;;5037101;28;20473;-78
2022/01/29 03:31:28;;;;;;;66.33;37.77;;;7.10;99.90;;;;;;5020609;28;20036;-79
2022/01/29 03:33:54;;;;;;;61.80;36.30;;;7.00;99.90;;;;;;5020742;28;20032;-78
2022/01/29 03:36:20;;;;;;;59.30;35.00;;;7.20;99.90;;;;;;5036989;28;20033;-79
2022/01/29 03:38:45;;;;;;;55.97;33.97;;;7.10;99.90;;;;;;5037134;28;20033;-78
2022/01/29 03:41:13;;;;;;;59.23;34.20;;;7.10;99.90;;;;;;5020458;28;20473;-78
2022/01/29 03:43:46;;;;;;;61.70;34.63;;;7.10;99.90;;;;;;5037470;28;20131;-80
2022/01/29 03:46:13;;;;;;;54.40;31.57;;;7.10;99.90;;;;;;5054796;28;20125;-76
2022/01/29 03:48:39;;;;;;;54.23;31.90;;;7.10;99.90;;;;;;5020846;28;20025;-76
2022/01/29 03:51:05;;;;;;;56.70;31.33;;;7.10;99.90;;;;;;5054695;28;20066;-76
2022/01/29 03:53:31;;;;;;;59.77;33.93;;;7.10;99.90;;;;;;5054800;28;20060;-77
2022/01/29 03:55:57;;;;;;;57.87;32.53;;;7.10;99.90;;;;;;5020674;28;20036;-76
2022/01/29 03:58:22;;;;;;;51.43;31.97;;;7.10;99.90;;;;;;5037275;28;20029;-76
2022/01/29 04:00:48;;;;;;;61.63;33.57;;;7.10;99.90;;;;;;5020026;28;20029;-77
2022/01/29 04:03:14;;;;;;;58.47;32.73;;;7.20;99.90;;;;;;5020552;28;20561;-76
2022/01/29 04:05:39;;;;;;;61.37;35.50;;;7.10;99.90;;;;;;5037285;28;20468;-77
2022/01/29 04:08:13;;;;;;;62.77;36.43;;;7.10;99.90;;;;;;5020365;28;20082;-77
2022/01/29 04:10:38;;;;;;;59.13;34.95;;;7.20;99.90;;;;;;5054735;28;20032;-77
2022/01/29 04:13:05;;;;;;;63.23;36.77;;;7.20;99.90;;;;;;5019625;28;20021;-76
2022/01/29 04:15:31;;;;;;;65.17;35.63;;;7.20;99.90;;;;;;5020534;28;20094;-76
2022/01/29 04:17:56;;;;;;;61.03;35.53;;;7.20;99.90;;;;;;5019925;28;20020;-76
2022/01/29 04:20:22;;;;;;;65.60;35.90;;;7.20;99.90;;;;;;5019704;28;20021;-76
2022/01/29 04:22:48;;;;;;;59.47;36.27;;;7.20;99.90;;;;;;5020014;28;20078;-75
2022/01/29 04:25:13;;;;;;;68.27;39.43;;;7.20;99.90;;;;;;5054266;28;20476;-76
2022/01/29 04:27:43;;;;;;;74.63;40.03;;;7.30;99.90;;;;;;5036176;28;20029;-76
2022/01/29 04:30:14;;;;;;;71.10;39.33;;;7.20;99.90;;;;;;5053763;28;20053;-76
2022/01/29 04:35:06;;;;;;;68.23;39.40;;;7.20;99.90;;;;;;5036634;28;20033;-76
2022/01/29 04:37:32;;;;;;;69.83;38.87;;;7.30;99.90;;;;;;5036369;28;20013;-77
2022/01/29 04:39:57;;;;;;;70.40;38.27;;;7.40;99.90;;;;;;5036372;28;20028;-77
2022/01/29 04:42:23;;;;;;;74.83;36.93;;;7.40;99.90;;;;;;5036031;28;20029;-77
2022/01/29 04:44:49;;;;;;;81.87;41.47;;;7.40;99.90;;;;;;5019714;28;20469;-77
2022/01/29 04:47:14;;;;;;;76.47;41.03;;;7.40;99.90;;;;;;5019328;28;20024;-77
2022/01/29 04:49:40;;;;;;;83.40;42.77;;;7.40;99.90;;;;;;5036260;28;20017;-77
2022/01/29 04:52:06;;;;;;;71.73;40.83;;;7.50;99.90;;;;;;5019359;28;20059;-76
2022/01/29 04:54:33;;;;;;;75.30;38.47;;;7.50;99.90;;;;;;5019623;28;20078;-76
2022/01/29 04:56:58;;;;;;;75.63;39.87;;;7.50;99.90;;;;;;5035972;28;20079;-76
2022/01/29 04:59:24;;;;;;;84.60;42.60;;;7.50;99.90;;;;;;5054039;28;20400;-76
2022/01/29 05:01:49;;;;;;;72.27;39.50;;;7.60;99.90;;;;;;5019386;28;20032;-76
2022/01/29 05:04:15;;;;;;;75.33;39.27;;;7.60;99.90;;;;;;5019127;28;20025;-77
2022/01/29 05:06:41;;;;;;;75.90;40.23;;;7.70;99.90;;;;;;5053671;28;20025;-77
2022/01/29 05:09:09;;;;;;;80.70;41.27;;;7.60;99.90;;;;;;5035713;28;20053;-75
2022/01/29 05:11:34;;;;;;;83.13;41.83;;;7.70;99.90;;;;;;5019618;28;20036;-75
2022/01/29 05:14:02;;;;;;;81.20;41.70;;;7.60;99.90;;;;;;5035372;28;20033;-77
2022/01/29 05:27:07;;;;;;;76.50;42.22;;;7.70;99.90;;;;;;5057806;28;20425;-76
2022/01/29 05:29:33;;;;;;;76.57;41.70;;;7.70;99.90;;;;;;5039412;28;20036;-76
2022/01/29 05:32:01;;;;;;;80.43;44.23;;;7.70;99.90;;;;;;5057258;28;20025;-76
2022/01/29 05:34:27;;;;;;;75.37;42.13;;;7.70;99.90;;;;;;5039175;28;20018;-77
2022/01/29 05:36:53;;;;;;;74.67;42.80;;;7.70;99.90;;;;;;5039331;28;20032;-76
2022/01/29 05:39:20;;;;;;;81.13;46.07;;;7.70;99.90;;;;;;5039527;28;20025;-77
2022/01/29 05:41:46;;;;;;;76.97;41.67;;;7.80;99.90;;;;;;5039236;28;20032;-77
2022/01/29 05:44:11;;;;;;;79.87;42.83;;;7.80;99.90;;;;;;5039689;28;20033;-76
2022/01/29 05:46:39;;;;;;;73.17;40.07;;;7.80;99.90;;;;;;5039134;28;20028;-77
2022/01/29 05:49:05;;;;;;;76.70;41.70;;;7.90;99.90;;;;;;5039124;28;20053;-77
2022/01/29 05:51:31;;;;;;;76.43;41.03;;;7.80;99.90;;;;;;5022737;28;20492;-77
2022/01/29 05:53:58;;;;;;;74.13;41.20;;;7.80;99.90;;;;;;5039457;28;20449;-77
2022/01/29 05:56:24;;;;;;;70.43;39.40;;;7.90;99.90;;;;;;5038891;28;20108;-77
2022/01/29 05:58:51;;;;;;;69.97;37.87;;;7.90;99.90;;;;;;5039061;28;20021;-77
2022/01/29 06:01:16;;;;;;;81.97;41.00;;;7.90;99.90;;;;;;5038850;28;20423;-76
2022/01/29 06:03:42;;;;;;;69.93;39.30;;;7.90;99.90;;;;;;5038749;28;20021;-77
2022/01/29 06:06:08;;;;;;;66.53;39.23;;;7.90;99.90;;;;;;5056984;28;20075;-76
2022/01/29 06:08:33;;;;;;;70.20;38.50;;;7.90;99.90;;;;;;5038683;28;20170;-76
2022/01/29 06:10:59;;;;;;;61.50;36.97;;;8.00;99.90;;;;;;5022296;28;20036;-77
2022/01/29 06:13:25;;;;;;;71.40;40.10;;;8.00;99.90;;;;;;5038693;28;20025;-77
2022/01/29 06:15:52;;;;;;;67.83;38.07;;;8.00;99.90;;;;;;5038889;28;20017;-76
2022/01/29 06:18:20;;;;;;;69.67;38.70;;;8.00;99.90;;;;;;5038431;28;20032;-75
2022/01/29 06:20:50;;;;;;;69.80;38.20;;;8.00;99.90;;;;;;5056460;28;20056;-76
2022/01/29 06:23:20;;;;;;;68.23;37.40;;;8.00;99.90;;;;;;5039234;28;20029;-77
2022/01/29 06:25:46;;;;;;;64.97;36.53;;;8.10;99.90;;;;;;5022412;28;20060;-77
2022/01/29 06:28:12;;;;;;;65.47;36.93;;;8.00;99.90;;;;;;5022042;28;20110;-78
2022/01/29 06:30:37;;;;;;;63.63;36.00;;;8.10;99.90;;;;;;5038230;28;20039;-77
2022/01/29 06:33:11;;;;;;;64.43;36.27;;;8.10;99.90;;;;;;5038311;28;20021;-77
2022/01/29 06:35:39;;;;;;;61.33;35.47;;;8.10;99.90;;;;;;5038425;28;20025;-77
2022/01/29 06:38:06;;;;;;;59.67;35.70;;;8.20;99.90;;;;;;5022020;28;20021;-77
2022/01/29 06:40:32;;;;;;;62.63;34.07;;;8.20;99.90;;;;;;5038216;28;20029;-77
2022/01/29 06:42:58;;;;;;;59.17;32.50;;;8.20;99.90;;;;;;5055708;28;20103;-77
2022/01/29 06:45:25;;;;;;;58.73;33.90;;;8.20;99.90;;;;;;5019568;28;20068;-77
2022/01/29 06:47:50;;;;;;;63.83;33.50;;;8.20;99.90;;;;;;5025410;28;20028;-77
2022/01/29 06:50:16;;;;;;;56.73;33.67;;;8.20;99.90;;;;;;5014424;28;20025;-77
2022/01/29 06:52:42;;;;;;;54.87;32.60;;;8.20;99.90;;;;;;5037887;28;20496;-77
2022/01/29 06:55:08;;;;;;;54.87;33.27;;;8.30;99.90;;;;;;5020933;28;20070;-77
2022/01/29 06:57:33;;;;;;;62.07;31.37;;;8.30;99.90;;;;;;5055646;28;20477;-78
2022/01/29 06:59:59;;;;;;;52.97;30.83;;;8.30;99.90;;;;;;5037516;28;20491;-77
2022/01/29 07:02:28;;;;;;;61.60;29.53;;;8.40;99.90;;;;;;5021007;28;20024;-77
2022/01/29 07:04:53;;;;;;;51.77;29.43;;;8.40;99.90;;;;;;5019728;28;20025;-77
2022/01/29 07:07:19;;;;;;;55.20;29.90;;;8.40;99.90;;;;;;5018122;28;20035;-77
2022/01/29 07:09:44;;;;;;;52.47;30.23;;;8.40;99.90;;;;;;5017654;28;20367;-77
2022/01/29 07:12:11;;;;;;;47.97;28.00;;;8.40;99.90;;;;;;5001745;28;20076;-77
2022/01/29 07:14:39;;;;;;;53.17;28.47;;;8.50;99.90;;;;;;5001549;28;20036;-77
2022/01/29 07:17:10;;;;;;;46.37;27.60;;;8.50;99.90;;;;;;5033981;28;20029;-77
2022/01/29 07:19:36;;;;;;;49.43;28.97;;;8.50;99.90;;;;;;5034602;28;20032;-77
2022/01/29 07:22:03;;;;;;;46.10;27.03;;;8.50;99.90;;;;;;5017713;28;20052;-77
2022/01/29 07:24:30;;;;;;;42.83;24.53;;;8.50;99.90;;;;;;5036800;28;20029;-78
2022/01/29 07:26:55;;;;;;;42.20;25.90;;;8.50;99.90;;;;;;5020275;28;20049;-77
2022/01/29 07:29:21;;;;;;;49.87;27.47;;;8.50;99.90;;;;;;5004767;28;20460;-77
2022/01/29 07:31:47;;;;;;;43.87;26.03;;;8.60;99.90;;;;;;5020587;28;20080;-76
2022/01/29 07:34:12;;;;;;;46.70;25.47;;;8.60;99.90;;;;;;5037139;28;20033;-77
2022/01/29 07:36:38;;;;;;;42.37;25.37;;;8.60;99.90;;;;;;5020843;28;20060;-77
2022/01/29 07:39:04;;;;;;;41.47;23.70;;;8.60;99.90;;;;;;5036891;28;20032;-77
2022/01/29 07:41:29;;;;;;;40.03;24.47;;;8.60;99.90;;;;;;5036866;28;20025;-77
2022/01/29 07:43:55;;;;;;;40.17;23.43;;;8.60;99.90;;;;;;5021279;28;20033;-77
2022/01/29 07:46:21;;;;;;;36.50;22.00;;;8.60;99.90;;;;;;5037443;28;20056;-77
2022/01/29 07:48:46;;;;;;;39.53;22.27;;;8.60;99.90;;;;;;5024992;28;20126;-77
2022/01/29 07:51:12;;;;;;;38.90;20.90;;;8.60;99.90;;;;;;5056685;28;20033;-77
2022/01/29 07:53:37;;;;;;;34.13;19.47;;;8.60;99.90;;;;;;5040102;28;20120;-77
2022/01/29 07:56:03;;;;;;;31.93;19.53;;;8.70;99.90;;;;;;5042310;28;20045;-78
2022/01/29 07:58:29;;;;;;;33.33;19.40;;;8.70;99.90;;;;;;5042181;28;20020;-78
2022/01/29 08:00:55;;;;;;;37.20;18.83;;;8.70;99.90;;;;;;5021683;28;20103;-77
2022/01/29 08:03:20;;;;;;;32.10;19.00;;;8.80;99.90;;;;;;5017782;28;20113;-78
2022/01/29 08:05:46;;;;;;;27.07;17.37;;;8.80;99.90;;;;;;5033411;28;20030;-78
2022/01/29 08:08:12;;;;;;;29.73;18.13;;;8.80;99.90;;;;;;5032957;28;20481;-78
2022/01/29 08:10:37;;;;;;;33.40;19.43;;;8.80;99.90;;;;;;5033067;28;20485;-78
2022/01/29 08:13:03;;;;;;;32.80;18.47;;;8.80;99.90;;;;;;5046792;28;20104;-78
2022/01/29 08:15:29;;;;;;;27.90;18.37;;;8.80;99.90;;;;;;5036495;28;20025;-78
2022/01/29 08:17:54;;;;;;;27.77;18.00;;;8.80;99.90;;;;;;5019755;28;20576;-78
2022/01/29 08:20:20;;;;;;;32.07;17.90;;;8.90;99.90;;;;;;5036695;28;20022;-75
2022/01/29 08:22:47;;;;;;;30.67;17.67;;;8.90;99.90;;;;;;5036243;28;20421;-77
2022/01/29 08:25:13;;;;;;;32.57;18.67;;;9.00;99.90;;;;;;5020171;28;20402;-77
2022/01/29 08:27:39;;;;;;;29.33;17.53;;;8.90;99.90;;;;;;5019669;28;20127;-77
2022/01/29 08:30:05;;;;;;;27.60;17.97;;;9.00;99.90;;;;;;5020291;28;20491;-78
2022/01/29 08:32:31;;;;;;;30.93;18.73;;;9.00;99.90;;;;;;5036324;28;20155;-77
2022/01/29 08:34:58;;;;;;;33.77;19.33;;;9.00;99.90;;;;;;5003453;28;20489;-78
2022/01/29 08:37:24;;;;;;;36.47;19.37;;;9.10;99.90;;;;;;5019409;28;20025;-78
2022/01/29 08:39:50;;;;;;;27.73;19.07;;;9.10;99.90;;;;;;5019662;28;20066;-78
2022/01/29 08:42:15;;;;;;;31.80;19.30;;;9.10;99.90;;;;;;5003113;28;20032;-78
2022/01/29 08:44:42;;;;;;;31.40;18.57;;;9.10;99.90;;;;;;5002846;28;20064;-78
2022/01/29 08:47:08;;;;;;;30.23;18.50;;;9.00;99.90;;;;;;5037818;28;20053;-77
2022/01/29 08:49:34;;;;;;;31.40;18.27;;;9.10;99.90;;;;;;5056511;28;20029;-78
2022/01/29 08:51:59;;;;;;;30.57;18.23;;;9.10;99.90;;;;;;5072531;28;20389;-78
2022/01/29 08:54:25;;;;;;;31.37;17.97;;;9.20;99.90;;;;;;5044267;28;20029;-78
2022/01/29 08:56:54;;;;;;;30.67;18.17;;;9.20;99.90;;;;;;5019644;28;20460;-80
2022/01/29 08:59:20;;;;;;;34.63;17.83;;;9.20;99.90;;;;;;5019030;28;20116;-78
2022/01/29 09:01:45;;;;;;;32.50;17.13;;;9.20;99.90;;;;;;5035669;28;20106;-78
2022/01/29 09:04:11;;;;;;;30.60;17.20;;;9.20;99.90;;;;;;5019082;28;20033;-77
2022/01/29 09:06:36;;;;;;;29.70;18.23;;;9.20;99.90;;;;;;5035669;28;20469;-78
2022/01/29 09:09:02;;;;;;;28.53;18.27;;;9.20;99.90;;;;;;5018857;28;20068;-77
2022/01/29 09:11:28;;;;;;;32.57;17.07;;;9.30;99.90;;;;;;5019007;28;20412;-77
2022/01/29 09:13:54;;;;;;;28.57;18.30;;;9.30;99.90;;;;;;5019382;28;20029;-78
2022/01/29 09:16:19;;;;;;;26.87;16.30;;;9.30;99.90;;;;;;5002609;28;20079;-77
2022/01/29 09:18:45;;;;;;;26.87;16.87;;;9.30;99.90;;;;;;5019142;28;20404;-78
2022/01/29 09:21:13;;;;;;;27.33;16.43;;;9.30;99.90;;;;;;5019001;28;20067;-78
2022/01/29 09:23:38;;;;;;;26.23;15.67;;;9.40;99.90;;;;;;5035500;28;20029;-76
2022/01/29 09:26:04;;;;;;;25.70;16.23;;;9.30;99.90;;;;;;5019028;28;20466;-78
2022/01/29 09:28:30;;;;;;;24.43;16.40;;;9.30;99.90;;;;;;5019180;28;20427;-78
2022/01/29 09:30:56;;;;;;;33.67;16.83;;;9.40;99.90;;;;;;5035462;28;20033;-78
2022/01/29 09:33:21;;;;;;;25.47;16.50;;;9.40;99.90;;;;;;5035397;28;20082;-77
2022/01/29 09:35:47;;;;;;;24.67;14.60;;;9.50;99.90;;;;;;5035559;28;20051;-77
2022/01/29 09:38:13;;;;;;;23.63;16.00;;;9.50;99.90;;;;;;5018577;28;20075;-78
2022/01/29 09:40:42;;;;;;;22.70;14.83;;;9.50;99.90;;;;;;5018768;28;20040;-79
2022/01/29 09:43:09;;;;;;;23.60;15.10;;;9.50;99.90;;;;;;5018633;28;20040;-78
2022/01/29 09:45:36;;;;;;;24.33;14.07;;;9.60;99.90;;;;;;5035117;28;20413;-78
2022/01/29 09:48:02;;;;;;;19.47;13.43;;;9.60;99.90;;;;;;5052922;28;20108;-78
2022/01/29 09:50:30;;;;;;;20.30;13.07;;;9.60;99.90;;;;;;5018540;28;20029;-78
2022/01/29 09:52:56;;;;;;;21.40;11.67;;;9.70;99.90;;;;;;5034925;28;20088;-78
2022/01/29 09:55:22;;;;;;;18.43;12.00;;;9.70;99.90;;;;;;5035159;28;20017;-77
2022/01/29 09:57:48;;;;;;;24.00;11.93;;;9.70;99.90;;;;;;5035090;28;20021;-80
2022/01/29 10:00:14;;;;;;;17.93;11.80;;;9.80;99.90;;;;;;5015172;28;20022;-78
2022/01/29 10:02:40;;;;;;;15.83;10.53;;;9.80;99.90;;;;;;5015127;28;20055;-78
2022/01/29 10:05:07;;;;;;;16.47;10.63;;;9.80;99.90;;;;;;5018167;28;20544;-78
2022/01/29 10:07:33;;;;;;;18.97;9.70;;;9.90;99.90;;;;;;5035082;28;20370;-78
2022/01/29 10:10:01;;;;;;;20.37;9.63;;;9.90;99.90;;;;;;5019801;28;20028;-78
2022/01/29 10:12:31;;;;;;;17.07;9.33;;;9.90;99.90;;;;;;5056141;28;20029;-78
2022/01/29 10:15:05;;;;;;;15.80;9.37;;;9.90;99.90;;;;;;5055253;28;20052;-78
2022/01/29 10:17:42;;;;;;;17.63;8.40;;;10.00;99.90;;;;;;5056354;28;20020;-78
2022/01/29 10:20:29;;;;;;;12.27;8.37;;;9.90;99.90;;;;;;5022242;28;20037;-79
2022/01/29 10:22:55;;;;;;;14.33;7.43;;;10.00;99.90;;;;;;5032900;28;20403;-77
2022/01/29 10:25:33;;;;;;;17.90;7.10;;;10.00;99.90;;;;;;5021836;28;20099;-78
2022/01/29 10:28:07;;;;;;;19.23;7.73;;;10.00;99.90;;;;;;5038855;28;20025;-77
2022/01/29 10:30:50;;;;;;;13.60;7.23;;;10.00;99.90;;;;;;5038809;28;20033;-77
2022/01/29 10:33:29;;;;;;;11.50;6.40;;;10.00;99.90;;;;;;5056092;28;20075;-78
2022/01/29 10:36:04;;;;;;;15.17;6.53;;;10.10;99.90;;;;;;5056045;28;20025;-76
2022/01/29 10:38:30;;;;;;;19.83;6.27;;;10.10;99.90;;;;;;5038192;28;20060;-76
2022/01/29 10:41:19;;;;;;;10.57;5.33;;;10.10;99.90;;;;;;5038021;28;20029;-77
2022/01/29 10:43:55;;;;;;;11.20;6.27;;;10.20;99.90;;;;;;5033751;28;20052;-76
2022/01/29 10:46:31;;;;;;;10.20;5.23;;;10.30;99.90;;;;;;5038096;28;20055;-76
2022/01/29 10:48:58;;;;;;;11.97;5.77;;;10.30;99.90;;;;;;5056038;28;20032;-77
2022/01/29 10:51:24;;;;;;;10.07;4.87;;;10.40;99.90;;;;;;5037968;28;20029;-77
2022/01/29 10:53:53;;;;;;;9.30;5.00;;;10.40;99.90;;;;;;5055660;28;20416;-76
2022/01/29 10:56:19;;;;;;;10.27;5.37;;;10.50;99.90;;;;;;5055871;28;20415;-76
2022/01/29 10:58:47;;;;;;;13.53;4.50;;;10.50;99.90;;;;;;5005026;28;20025;-75
2022/01/29 11:01:20;;;;;;;9.57;4.93;;;10.50;99.90;;;;;;5021793;28;20120;-76
2022/01/29 11:03:46;;;;;;;9.10;3.83;;;10.60;99.90;;;;;;5037750;28;20029;-77
2022/01/29 11:06:21;;;;;;;6.23;3.70;;;10.60;99.90;;;;;;5037446;28;20067;-77
2022/01/29 11:08:48;;;;;;;6.93;3.17;;;10.60;99.90;;;;;;5037406;28;20039;-78
2022/01/29 11:11:15;;;;;;;9.23;3.30;;;10.60;99.90;;;;;;5021568;28;20041;-78
2022/01/29 11:13:43;;;;;;;7.07;2.50;;;10.70;99.90;;;;;;5056090;28;20025;-77
2022/01/29 11:16:10;;;;;;;8.10;2.37;;;10.70;99.90;;;;;;5055313;28;20049;-77
2022/01/29 11:18:36;;;;;;;8.17;2.83;;;10.70;99.90;;;;;;5037352;28;20029;-78
2022/01/29 11:21:03;;;;;;;7.17;2.50;;;10.70;99.90;;;;;;5020229;28;20116;-79
2022/01/29 11:23:31;;;;;;;9.53;2.47;;;10.80;99.90;;;;;;5020628;28;20028;-77
2022/01/29 11:25:59;;;;;;;8.07;2.23;;;10.80;99.90;;;;;;5037137;28;20083;-84
2022/01/29 11:28:27;;;;;;;11.85;2.40;;;10.80;99.90;;;;;;5055278;28;20048;-83
2022/01/29 11:31:13;;;;;;;5.53;2.10;;;10.80;99.90;;;;;;5054183;28;20024;-79
2022/01/29 11:33:57;;;;;;;8.57;2.10;;;10.80;99.80;;;;;;5052307;28;20483;-84
2022/01/29 11:36:49;;;;;;;6.63;2.28;;;10.90;99.90;;;;;;5052987;28;20504;-82
2022/01/29 11:39:21;;;;;;;8.13;1.80;;;10.90;99.90;;;;;;5046265;28;20025;-84
2022/01/29 11:42:15;;;;;;;8.67;1.80;;;10.90;99.70;;;;;;5053203;28;20032;-81
2022/01/29 11:44:45;;;;;;;10.13;2.30;;;10.90;99.60;;;;;;5037040;28;20119;-82
2022/01/29 11:47:26;;;;;;;9.20;1.97;;;10.90;99.40;;;;;;5036948;28;20045;-80
2022/01/29 11:50:11;;;;;;;9.05;2.05;;;11.00;99.30;;;;;;5033686;28;20029;-82
2022/01/29 11:52:56;;;;;;;6.35;1.63;;;11.00;99.40;;;;;;5040306;28;20040;-81
2022/01/29 11:55:47;;;;;;;10.88;2.22;;;10.90;99.10;;;;;;5036956;28;20025;-79
2022/01/29 11:58:21;;;;;;;7.93;1.23;;;10.90;99.10;;;;;;5036682;28;20048;-84
2022/01/29 12:01:11;;;;;;;8.23;1.50;;;10.90;99.00;;;;;;5036535;28;20473;-81
2022/01/29 12:03:43;;;;;;;5.60;1.20;;;10.90;99.10;;;;;;5034264;28;20040;-82
2022/01/29 12:08:40;;;;;;;7.70;1.73;;;10.90;99.00;;;;;;5054210;28;20082;-83
2022/01/29 12:11:12;;;;;;;7.83;1.17;;;10.90;99.00;;;;;;5054298;28;20384;-82
2022/01/29 12:13:38;;;;;;;6.50;1.33;;;11.00;99.10;;;;;;5036236;28;20420;-80
2022/01/29 12:16:05;;;;;;;8.40;1.42;;;11.00;99.00;;;;;;5054159;28;20025;-85
2022/01/29 12:18:34;;;;;;;7.57;1.20;;;10.90;99.00;;;;;;5054295;28;20027;-83
2022/01/29 12:21:02;;;;;;;8.43;1.40;;;11.00;99.10;;;;;;5019963;28;20534;-81
2022/01/29 12:23:28;;;;;;;5.05;1.25;;;11.00;99.00;;;;;;5054381;28;20548;-83
2022/01/29 12:25:56;;;;;;;9.00;1.58;;;11.00;98.80;;;;;;5019545;28;20076;-82
2022/01/29 12:28:22;;;;;;;8.13;1.20;;;11.00;98.80;;;;;;5046137;28;20037;-83
2022/01/29 12:30:47;;;;;;;9.10;1.60;;;11.00;98.70;;;;;;5036624;28;20120;-81
2022/01/29 12:33:16;;;;;;;4.85;1.17;;;11.00;98.60;;;;;;5035732;28;20117;-82
2022/01/29 12:35:57;;;;;;;8.43;1.42;;;11.00;98.60;;;;;;5036409;28;20052;-82
2022/01/29 12:38:28;;;;;;;5.97;1.55;;;11.10;98.40;;;;;;5035916;28;20429;-84
2022/01/29 12:40:57;;;;;;;7.65;1.25;;;11.10;98.50;;;;;;5036418;28;20021;-82
2022/01/29 12:43:24;;;;;;;3.78;1.20;;;11.20;98.50;;;;;;5036002;28;20384;-83
2022/01/29 12:45:55;;;;;;;7.22;1.35;;;11.20;98.30;;;;;;5036087;28;20029;-82
2022/01/29 12:48:21;;;;;;;5.82;1.27;;;11.30;98.20;;;;;;5036828;28;20095;-81
2022/01/29 12:50:47;;;;;;;3.53;1.02;;;11.30;98.20;;;;;;5019438;28;20481;-83
2022/01/29 12:53:19;;;;;;;8.77;1.40;;;11.40;98.20;;;;;;5036010;28;20029;-79
2022/01/29 12:56:00;;;;;;;5.22;1.45;;;11.40;97.90;;;;;;5036320;28;20032;-83
2022/01/29 12:58:31;;;;;;;5.68;1.63;;;11.40;97.70;;;;;;5035750;28;20032;-82